Time;durP1;ratioP1;P1;durP2;ratioP2;P2;SDS_P1;SDS_P2;PMS_P1;PMS_P2;Temp;Humidity;BMP_temperature;BMP_pressure;BME280_temperature;BME280_humidity;BME280_pressure;Samples;Min_cycle;Max_cycle;Signal;HPM_P1;HPM_P2
2022/01/31 00:02:11;;;;;;;10.70;3.10;;;;;;;;;;4997992;28;20048;-75
2022/01/31 00:04:37;;;;;;;10.23;3.03;;;;;;;;;;4998198;28;20045;-75
2022/01/31 00:07:03;;;;;;;9.98;2.90;;;;;;;;;;4990768;28;20498;-75
2022/01/31 00:09:29;;;;;;;9.98;2.85;;;;;;;;;;4990819;28;20477;-75
2022/01/31 00:12:00;;;;;;;9.98;2.72;;;;;;;;;;4990734;28;20045;-75
2022/01/31 00:14:42;;;;;;;11.77;2.85;;;;;;;;;;4973970;28;20042;-75
2022/01/31 00:17:08;;;;;;;8.13;2.53;;;;;;;;;;4990079;28;20391;-75
2022/01/31 00:19:38;;;;;;;11.13;3.03;;;;;;;;;;4987187;28;20527;-75
2022/01/31 00:22:05;;;;;;;11.10;2.63;;;;;;;;;;4986453;28;20686;-75
2022/01/31 00:24:33;;;;;;;10.18;3.10;;;;;;;;;;4981670;28;20046;-75
2022/01/31 00:26:59;;;;;;;8.23;2.53;;;;;;;;;;4972872;28;20058;-75
2022/01/31 00:29:25;;;;;;;9.65;2.40;;;;;;;;;;4985909;28;20046;-75
2022/01/31 00:31:51;;;;;;;10.45;2.50;;;;;;;;;;4986298;28;20519;-75
2022/01/31 00:34:17;;;;;;;8.50;2.88;;;;;;;;;;4984160;28;20061;-75
2022/01/31 00:36:43;;;;;;;9.63;2.75;;;;;;;;;;4975062;28;20053;-75
2022/01/31 00:39:09;;;;;;;9.23;2.47;;;;;;;;;;4966124;28;20038;-75
2022/01/31 00:41:35;;;;;;;10.93;3.55;;;;;;;;;;4971170;28;20128;-75
2022/01/31 00:44:14;;;;;;;10.10;2.75;;;;;;;;;;4987369;28;20668;-75
2022/01/31 00:46:43;;;;;;;10.05;2.50;;;;;;;;;;4986808;28;20181;-75
2022/01/31 00:49:16;;;;;;;9.25;2.88;;;;;;;;;;4986581;28;20070;-75
2022/01/31 00:51:42;;;;;;;8.15;2.83;;;;;;;;;;4987162;28;20596;-75
2022/01/31 00:54:08;;;;;;;8.80;2.67;;;;;;;;;;4986301;28;20100;-75
2022/01/31 00:56:34;;;;;;;9.88;2.58;;;;;;;;;;4986076;28;20046;-75
2022/01/31 00:59:00;;;;;;;9.23;2.60;;;;;;;;;;4988352;28;20569;-75
2022/01/31 01:01:26;;;;;;;9.35;2.60;;;;;;;;;;4986321;28;20058;-75
2022/01/31 01:03:52;;;;;;;10.43;2.65;;;;;;;;;;4970123;28;20047;-75
2022/01/31 01:06:17;;;;;;;8.85;2.50;;;;;;;;;;4978618;28;20252;-75
2022/01/31 01:08:43;;;;;;;9.88;2.67;;;;;;;;;;4975382;28;20046;-75
2022/01/31 01:11:09;;;;;;;9.77;2.95;;;;;;;;;;4969863;28;20559;-74
2022/01/31 01:13:35;;;;;;;10.07;3.40;;;;;;;;;;4986254;28;20093;-75
2022/01/31 01:16:01;;;;;;;7.80;2.67;;;;;;;;;;4985505;28;20054;-75
2022/01/31 01:18:27;;;;;;;8.82;2.38;;;;;;;;;;4995442;28;20478;-75
2022/01/31 01:20:53;;;;;;;9.30;2.65;;;;;;;;;;4988815;28;20188;-75
2022/01/31 01:23:20;;;;;;;11.77;3.00;;;;;;;;;;4988797;28;20441;-75
2022/01/31 01:25:47;;;;;;;7.80;2.17;;;;;;;;;;4988904;28;20128;-75
2022/01/31 01:28:13;;;;;;;9.65;2.47;;;;;;;;;;4989139;28;20042;-75
2022/01/31 01:30:39;;;;;;;12.38;3.05;;;;;;;;;;4973318;28;20488;-75
2022/01/31 01:33:19;;;;;;;10.93;2.92;;;;;;;;;;4988796;28;20179;-75
2022/01/31 01:35:48;;;;;;;7.25;2.63;;;;;;;;;;4989174;28;20042;-75
2022/01/31 01:38:16;;;;;;;8.73;2.80;;;;;;;;;;4988979;28;20563;-75
2022/01/31 01:40:42;;;;;;;8.88;2.60;;;;;;;;;;4979732;28;20172;-75
2022/01/31 01:43:09;;;;;;;9.48;2.60;;;;;;;;;;5000462;28;20042;-75
2022/01/31 01:45:35;;;;;;;9.52;2.80;;;;;;;;;;4989362;28;20653;-75
2022/01/31 01:48:01;;;;;;;8.68;2.53;;;;;;;;;;5006694;28;20121;-75
2022/01/31 01:50:27;;;;;;;10.15;2.78;;;;;;;;;;4974859;28;20099;-75
2022/01/31 01:52:53;;;;;;;5.57;2.30;;;;;;;;;;4964322;28;20049;-75
2022/01/31 01:55:19;;;;;;;9.05;2.75;;;;;;;;;;5005716;28;20499;-75
2022/01/31 01:57:45;;;;;;;8.70;2.78;;;;;;;;;;5004905;28;20061;-75
2022/01/31 02:00:18;;;;;;;10.38;2.88;;;;;;;;;;5005286;28;20054;-76
2022/01/31 02:02:44;;;;;;;9.18;2.50;;;;;;;;;;5005546;28;20470;-76
2022/01/31 02:05:10;;;;;;;9.50;2.65;;;;;;;;;;5005411;28;20046;-76
2022/01/31 02:07:37;;;;;;;7.55;2.60;;;;;;;;;;4989156;28;20128;-76
2022/01/31 02:10:04;;;;;;;7.07;2.53;;;;;;;;;;5006266;28;20049;-75
2022/01/31 02:12:40;;;;;;;7.60;2.55;;;;;;;;;;5005299;28;20084;-75
2022/01/31 02:15:07;;;;;;;9.48;2.50;;;;;;;;;;5006159;28;20049;-75
2022/01/31 02:17:33;;;;;;;9.60;2.83;;;;;;;;;;4988386;28;20484;-75
2022/01/31 02:19:59;;;;;;;9.73;2.90;;;;;;;;;;4988915;28;20054;-75
2022/01/31 02:22:25;;;;;;;8.52;2.75;;;;;;;;;;4988608;28;20038;-75
2022/01/31 02:24:51;;;;;;;6.82;2.17;;;;;;;;;;4988145;28;20658;-76
2022/01/31 02:27:27;;;;;;;7.13;2.42;;;;;;;;;;4992271;28;20135;-76
2022/01/31 02:29:54;;;;;;;8.07;2.70;;;;;;;;;;4989599;28;20053;-75
2022/01/31 02:32:22;;;;;;;9.13;2.58;;;;;;;;;;4988852;28;20138;-76
2022/01/31 02:34:48;;;;;;;7.95;2.40;;;;;;;;;;4990625;28;20077;-75
2022/01/31 02:37:14;;;;;;;9.02;2.88;;;;;;;;;;4975415;28;20054;-76
2022/01/31 02:39:40;;;;;;;9.05;3.00;;;;;;;;;;4965166;28;20042;-75
2022/01/31 02:42:06;;;;;;;9.13;2.50;;;;;;;;;;4989096;28;20049;-75
2022/01/31 02:44:33;;;;;;;9.80;2.60;;;;;;;;;;4973003;28;20429;-75
2022/01/31 02:47:00;;;;;;;6.60;2.03;;;;;;;;;;4964078;28;20439;-75
2022/01/31 02:49:33;;;;;;;7.25;2.13;;;;;;;;;;4984849;28;20073;-75
2022/01/31 02:52:02;;;;;;;8.00;2.60;;;;;;;;;;5006609;28;20077;-75
2022/01/31 02:54:32;;;;;;;6.55;2.53;;;;;;;;;;4988754;28;20112;-75
2022/01/31 02:56:58;;;;;;;7.97;2.50;;;;;;;;;;4988217;28;20069;-76
2022/01/31 02:59:24;;;;;;;6.90;2.50;;;;;;;;;;4989019;28;20077;-76
2022/01/31 03:01:50;;;;;;;8.18;2.65;;;;;;;;;;4986987;28;20141;-75
2022/01/31 03:04:16;;;;;;;8.10;2.63;;;;;;;;;;4993055;28;20054;-75
2022/01/31 03:06:45;;;;;;;7.80;2.50;;;;;;;;;;4981481;28;20419;-75
2022/01/31 03:09:11;;;;;;;5.90;2.15;;;;;;;;;;4988858;28;20124;-75
2022/01/31 03:11:37;;;;;;;7.03;2.40;;;;;;;;;;4988130;28;20654;-75
2022/01/31 03:14:03;;;;;;;8.90;2.65;;;;;;;;;;4972352;28;20045;-76
2022/01/31 03:16:29;;;;;;;5.50;2.10;;;;;;;;;;4988274;28;20622;-75
2022/01/31 03:18:55;;;;;;;7.63;2.50;;;;;;;;;;4960423;28;20115;-75
2022/01/31 03:21:21;;;;;;;7.95;2.60;;;;;;;;;;4983720;28;20129;-76
2022/01/31 03:23:49;;;;;;;6.35;2.10;;;;;;;;;;4991640;28;20082;-76
2022/01/31 03:26:15;;;;;;;8.38;2.22;;;;;;;;;;5008489;28;20056;-75
2022/01/31 03:28:41;;;;;;;8.05;2.10;;;;;;;;;;4984464;28;20050;-75
2022/01/31 03:31:07;;;;;;;5.47;1.90;;;;;;;;;;4957659;28;20411;-75
2022/01/31 03:33:33;;;;;;;5.25;1.75;;;;;;;;;;4972868;28;20069;-75
2022/01/31 03:36:00;;;;;;;8.40;2.47;;;;;;;;;;4990217;28;20374;-75
2022/01/31 03:38:26;;;;;;;6.88;2.22;;;;;;;;;;4990672;28;20118;-75
2022/01/31 03:40:52;;;;;;;6.82;1.92;;;;;;;;;;4956389;28;20162;-76
2022/01/31 03:43:18;;;;;;;7.65;2.25;;;;;;;;;;4956767;28;20046;-76
2022/01/31 03:45:44;;;;;;;5.72;2.00;;;;;;;;;;4972501;28;20057;-75
2022/01/31 03:48:10;;;;;;;5.32;1.80;;;;;;;;;;4974192;28;20050;-75
2022/01/31 03:50:36;;;;;;;6.80;2.08;;;;;;;;;;4966566;28;20064;-75
2022/01/31 03:53:02;;;;;;;5.20;1.80;;;;;;;;;;4988852;28;20042;-76
2022/01/31 03:55:28;;;;;;;6.10;1.98;;;;;;;;;;4975272;28;20042;-75
2022/01/31 03:57:54;;;;;;;5.95;1.83;;;;;;;;;;5008130;28;20651;-76
2022/01/31 04:00:22;;;;;;;5.95;1.77;;;;;;;;;;5005393;28;20369;-75
2022/01/31 04:02:48;;;;;;;6.97;1.70;;;;;;;;;;4993395;28;20668;-75
2022/01/31 04:05:14;;;;;;;5.57;1.40;;;;;;;;;;5007634;28;20044;-75
2022/01/31 04:07:42;;;;;;;6.28;2.00;;;;;;;;;;5008027;28;20077;-76
2022/01/31 04:10:08;;;;;;;6.15;1.67;;;;;;;;;;5008088;28;20054;-75
2022/01/31 04:12:34;;;;;;;6.25;1.58;;;;;;;;;;5008422;28;20139;-75
2022/01/31 04:15:00;;;;;;;5.85;1.75;;;;;;;;;;5007525;28;20100;-75
2022/01/31 04:17:26;;;;;;;5.57;1.55;;;;;;;;;;4999204;28;20060;-74
2022/01/31 04:19:52;;;;;;;6.55;1.90;;;;;;;;;;4991459;28;20591;-75
2022/01/31 04:22:20;;;;;;;6.30;1.52;;;;;;;;;;4990703;28;20096;-75
2022/01/31 04:24:53;;;;;;;6.68;1.60;;;;;;;;;;4991587;28;20053;-75
2022/01/31 04:27:19;;;;;;;6.05;1.65;;;;;;;;;;4991712;28;20072;-75
2022/01/31 04:29:47;;;;;;;7.45;1.85;;;;;;;;;;4990591;28;20116;-75
2022/01/31 04:32:13;;;;;;;5.22;1.48;;;;;;;;;;4974482;28;20046;-75
2022/01/31 04:34:40;;;;;;;5.43;1.50;;;;;;;;;;4974828;28;20046;-75
2022/01/31 04:37:06;;;;;;;6.90;1.92;;;;;;;;;;4991139;28;20053;-75
2022/01/31 04:39:33;;;;;;;6.15;1.70;;;;;;;;;;4991705;28;20044;-75
2022/01/31 04:41:59;;;;;;;4.60;1.65;;;;;;;;;;4991238;28;20053;-75
2022/01/31 04:44:25;;;;;;;5.53;2.15;;;;;;;;;;4991504;28;20100;-75
2022/01/31 04:46:52;;;;;;;7.03;1.90;;;;;;;;;;5002813;28;20683;-75
2022/01/31 04:49:18;;;;;;;4.88;1.50;;;;;;;;;;5002635;28;20049;-75
2022/01/31 04:51:45;;;;;;;7.50;1.73;;;;;;;;;;4990940;28;20509;-75
2022/01/31 04:54:11;;;;;;;5.22;1.50;;;;;;;;;;4991397;28;20363;-75
2022/01/31 04:56:40;;;;;;;5.05;1.63;;;;;;;;;;4990665;28;20046;-74
2022/01/31 04:59:06;;;;;;;5.13;1.60;;;;;;;;;;4990980;28;20056;-76
2022/01/31 05:01:32;;;;;;;5.60;1.60;;;;;;;;;;4990800;28;20471;-75
2022/01/31 05:03:58;;;;;;;6.28;1.58;;;;;;;;;;4990846;28;20084;-76
2022/01/31 05:06:35;;;;;;;5.65;1.77;;;;;;;;;;4974430;28;20080;-76
2022/01/31 05:09:01;;;;;;;6.50;1.65;;;;;;;;;;4974405;28;20668;-76
2022/01/31 05:11:27;;;;;;;4.30;1.30;;;;;;;;;;4974063;28;20153;-76
2022/01/31 05:13:53;;;;;;;4.97;1.50;;;;;;;;;;4978894;28;20054;-76
2022/01/31 05:16:19;;;;;;;4.47;1.30;;;;;;;;;;5003721;28;20046;-76
2022/01/31 05:18:45;;;;;;;5.45;1.73;;;;;;;;;;4989592;28;20050;-76
2022/01/31 05:21:12;;;;;;;7.55;1.80;;;;;;;;;;4989772;28;20093;-76
2022/01/31 05:23:38;;;;;;;4.88;1.30;;;;;;;;;;4981508;28;20136;-76
2022/01/31 05:26:04;;;;;;;5.43;1.33;;;;;;;;;;5000110;28;20149;-76
2022/01/31 05:28:30;;;;;;;5.85;1.60;;;;;;;;;;4985569;28;20498;-76
2022/01/31 05:30:56;;;;;;;6.35;1.58;;;;;;;;;;4990073;28;20184;-76
2022/01/31 05:33:22;;;;;;;5.50;1.67;;;;;;;;;;4990563;28;20115;-77
2022/01/31 05:35:48;;;;;;;7.15;1.75;;;;;;;;;;4990675;28;20570;-76
2022/01/31 05:38:14;;;;;;;5.50;1.60;;;;;;;;;;4990560;28;20215;-76
2022/01/31 05:40:40;;;;;;;5.15;1.60;;;;;;;;;;4990046;28;20180;-76
2022/01/31 05:43:06;;;;;;;5.43;1.42;;;;;;;;;;4990104;28;20539;-76
2022/01/31 05:45:32;;;;;;;5.88;1.58;;;;;;;;;;4989619;28;20052;-76
2022/01/31 05:47:58;;;;;;;5.53;1.77;;;;;;;;;;4973177;28;20037;-76
2022/01/31 05:50:24;;;;;;;6.82;1.65;;;;;;;;;;4989515;28;20041;-76
2022/01/31 05:52:51;;;;;;;6.68;1.63;;;;;;;;;;4989528;28;20046;-76
2022/01/31 05:55:17;;;;;;;6.15;1.48;;;;;;;;;;4989635;28;20042;-76
2022/01/31 05:57:43;;;;;;;5.00;1.58;;;;;;;;;;4973260;28;20060;-76
2022/01/31 06:00:10;;;;;;;5.78;1.60;;;;;;;;;;4972967;28;20124;-76
2022/01/31 06:02:36;;;;;;;4.63;1.20;;;;;;;;;;4989246;28;20069;-76
2022/01/31 06:05:03;;;;;;;5.47;1.33;;;;;;;;;;4989220;28;20042;-76
2022/01/31 06:07:29;;;;;;;4.15;1.30;;;;;;;;;;4960096;28;20042;-77
2022/01/31 06:09:55;;;;;;;5.57;1.20;;;;;;;;;;4987439;28;20077;-77
2022/01/31 06:12:21;;;;;;;4.90;1.65;;;;;;;;;;4973593;28;20042;-77
2022/01/31 06:14:47;;;;;;;5.38;1.55;;;;;;;;;;4989962;28;20085;-77
2022/01/31 06:17:13;;;;;;;7.15;1.40;;;;;;;;;;4987967;28;20093;-77
2022/01/31 06:19:39;;;;;;;6.55;1.75;;;;;;;;;;4972393;28;20097;-76
2022/01/31 06:22:05;;;;;;;5.88;1.50;;;;;;;;;;4989273;28;20475;-76
2022/01/31 06:24:30;;;;;;;5.35;1.33;;;;;;;;;;4989496;28;20037;-76
2022/01/31 06:26:58;;;;;;;10.40;1.15;;;;;;;;;;5007334;28;20160;-76
2022/01/31 06:29:26;;;;;;;4.72;1.15;;;;;;;;;;4989356;28;20077;-76
2022/01/31 06:31:52;;;;;;;5.28;1.45;;;;;;;;;;4987807;28;20085;-76
2022/01/31 06:34:18;;;;;;;4.03;1.20;;;;;;;;;;4975497;28;20616;-76
2022/01/31 06:36:44;;;;;;;5.97;1.50;;;;;;;;;;4961867;28;20065;-76
2022/01/31 06:39:10;;;;;;;4.70;1.20;;;;;;;;;;4988414;28;20041;-77
2022/01/31 06:41:36;;;;;;;5.10;1.10;;;;;;;;;;4996010;28;20045;-76
2022/01/31 06:44:03;;;;;;;4.60;1.25;;;;;;;;;;4990441;28;20129;-74
2022/01/31 06:46:29;;;;;;;6.18;1.50;;;;;;;;;;5004878;28;20577;-74
2022/01/31 06:48:55;;;;;;;6.47;1.40;;;;;;;;;;4990737;28;20046;-74
2022/01/31 06:51:21;;;;;;;5.28;1.15;;;;;;;;;;4988553;28;20511;-74
2022/01/31 06:53:49;;;;;;;5.45;1.10;;;;;;;;;;4974834;28;20050;-74
2022/01/31 06:56:16;;;;;;;4.10;1.20;;;;;;;;;;4958467;28;20376;-75
2022/01/31 06:58:42;;;;;;;4.47;1.30;;;;;;;;;;4980629;28;20549;-74
2022/01/31 07:01:08;;;;;;;5.05;1.10;;;;;;;;;;4976186;28;20215;-74
2022/01/31 07:03:36;;;;;;;6.25;1.48;;;;;;;;;;4975083;28;20133;-73
2022/01/31 07:06:03;;;;;;;5.07;1.30;;;;;;;;;;4975568;28;20168;-74
2022/01/31 07:08:29;;;;;;;5.15;1.00;;;;;;;;;;4975317;28;20046;-74
2022/01/31 07:10:55;;;;;;;4.70;1.10;;;;;;;;;;4990830;28;20046;-74
2022/01/31 07:13:35;;;;;;;3.80;1.10;;;;;;;;;;5009318;28;20041;-74
2022/01/31 07:16:02;;;;;;;4.80;1.15;;;;;;;;;;4991232;28;20064;-75
2022/01/31 07:18:28;;;;;;;4.25;1.13;;;;;;;;;;4991415;28;20107;-75
2022/01/31 07:20:56;;;;;;;5.07;1.30;;;;;;;;;;4991454;28;20049;-75
2022/01/31 07:23:26;;;;;;;6.03;1.20;;;;;;;;;;4991777;28;20480;-75
2022/01/31 07:25:52;;;;;;;5.05;1.30;;;;;;;;;;4981504;28;20058;-75
2022/01/31 07:28:19;;;;;;;4.28;1.23;;;;;;;;;;4971583;28;20045;-75
2022/01/31 07:30:56;;;;;;;5.75;1.45;;;;;;;;;;4968176;28;20049;-75
2022/01/31 07:33:23;;;;;;;5.45;1.52;;;;;;;;;;4982043;28;20160;-76
2022/01/31 07:35:49;;;;;;;4.18;1.02;;;;;;;;;;4964459;28;20731;-76
2022/01/31 07:38:16;;;;;;;4.95;1.08;;;;;;;;;;4965534;28;20050;-76
2022/01/31 07:40:42;;;;;;;6.68;1.30;;;;;;;;;;4982450;28;20050;-76
2022/01/31 07:43:08;;;;;;;4.70;1.20;;;;;;;;;;4982131;28;20252;-76
2022/01/31 07:45:34;;;;;;;5.35;1.10;;;;;;;;;;4981352;28;20046;-76
2022/01/31 07:48:00;;;;;;;5.93;1.10;;;;;;;;;;4981900;28;21301;-76
2022/01/31 07:50:27;;;;;;;4.82;1.10;;;;;;;;;;4977935;28;20050;-76
2022/01/31 07:52:53;;;;;;;3.60;1.10;;;;;;;;;;4984167;28;20333;-76
2022/01/31 07:55:19;;;;;;;6.15;1.30;;;;;;;;;;4972995;28;20034;-76
2022/01/31 07:57:47;;;;;;;3.97;1.10;;;;;;;;;;4962730;28;22334;-76
2022/01/31 08:00:13;;;;;;;4.43;1.27;;;;;;;;;;4991298;28;20083;-75
2022/01/31 08:02:40;;;;;;;4.53;1.05;;;;;;;;;;4990893;28;20604;-77
2022/01/31 08:05:07;;;;;;;4.50;1.00;;;;;;;;;;4990316;28;20153;-76
2022/01/31 08:07:33;;;;;;;4.00;1.10;;;;;;;;;;4973218;28;20053;-76
2022/01/31 08:10:01;;;;;;;5.25;1.02;;;;;;;;;;4988005;28;20054;-76
2022/01/31 08:12:27;;;;;;;5.43;1.33;;;;;;;;;;4989108;28;20049;-77
2022/01/31 08:15:00;;;;;;;4.32;1.13;;;;;;;;;;4990939;28;20048;-77
2022/01/31 08:17:26;;;;;;;4.05;1.00;;;;;;;;;;4990739;28;20711;-76
2022/01/31 08:19:52;;;;;;;5.40;1.00;;;;;;;;;;4990799;28;20050;-77
2022/01/31 08:22:18;;;;;;;5.32;1.45;;;;;;;;;;4990921;28;20057;-77
2022/01/31 08:24:44;;;;;;;5.05;1.00;;;;;;;;;;5008836;28;20129;-76
2022/01/31 08:27:10;;;;;;;5.85;1.42;;;;;;;;;;4990315;28;20092;-77
2022/01/31 08:29:38;;;;;;;4.18;1.13;;;;;;;;;;4991015;28;20061;-77
2022/01/31 08:32:09;;;;;;;4.40;1.02;;;;;;;;;;4974341;28;20046;-77
2022/01/31 08:37:19;;;;;;;;;;;;;;;;;;4991199;28;20407;-77
2022/01/31 08:39:45;;;;;;;4.47;1.08;;;;;;;;;;4990945;28;19928;-76
2022/01/31 08:42:11;;;;;;;3.78;1.13;;;;;;;;;;4974632;28;20045;-77
2022/01/31 08:44:37;;;;;;;3.47;0.90;;;;;;;;;;4991032;28;20077;-77
2022/01/31 08:47:04;;;;;;;4.28;0.90;;;;;;;;;;4990147;28;20077;-77
2022/01/31 08:49:33;;;;;;;3.33;0.93;;;;;;;;;;4990435;28;20081;-77
2022/01/31 08:52:00;;;;;;;4.35;1.02;;;;;;;;;;4990288;28;20133;-77
2022/01/31 08:54:26;;;;;;;3.03;0.90;;;;;;;;;;4990537;28;20049;-77
2022/01/31 08:56:52;;;;;;;5.43;1.10;;;;;;;;;;4989838;28;20089;-77
2022/01/31 08:59:19;;;;;;;5.05;1.10;;;;;;;;;;4990025;28;20045;-77
2022/01/31 09:01:52;;;;;;;4.43;1.00;;;;;;;;;;5000344;28;20079;-76
2022/01/31 09:05:01;;;;;;;4.05;0.82;;;;;;;;;;5008335;28;20131;-77
2022/01/31 09:07:08;;;;;;;5.78;1.00;;;;;;;;;;4995170;28;20073;-77
2022/01/31 09:09:34;;;;;;;3.70;1.10;;;;;;;;;;5001439;28;20561;-78
2022/01/31 09:12:02;;;;;;;4.70;1.00;;;;;;;;;;4989145;28;20045;-78
2022/01/31 09:14:28;;;;;;;4.80;0.98;;;;;;;;;;4989815;28;20053;-77
2022/01/31 09:16:54;;;;;;;5.38;1.17;;;;;;;;;;4986365;28;20095;-78
2022/01/31 09:19:20;;;;;;;6.43;1.10;;;;;;;;;;4972854;28;20085;-78
2022/01/31 09:21:47;;;;;;;2.95;0.90;;;;;;;;;;4988893;28;20489;-79
2022/01/31 09:24:13;;;;;;;4.28;1.00;;;;;;;;;;4988088;28;20069;-78
2022/01/31 09:26:39;;;;;;;3.58;1.17;;;;;;;;;;4988775;28;20041;-78
2022/01/31 09:29:05;;;;;;;4.72;0.88;;;;;;;;;;4988001;28;20600;-78
2022/01/31 09:31:31;;;;;;;4.90;1.20;;;;;;;;;;4988137;28;20038;-78
2022/01/31 09:33:57;;;;;;;4.38;1.00;;;;;;;;;;4989010;28;20105;-78
2022/01/31 09:36:23;;;;;;;8.20;1.00;;;;;;;;;;4984259;28;20617;-78
2022/01/31 09:38:49;;;;;;;3.25;0.90;;;;;;;;;;4979335;28;20145;-78
2022/01/31 09:41:20;;;;;;;8.57;1.15;;;;;;;;;;4968721;28;20030;-78
2022/01/31 09:48:54;;;;;;;4.30;1.02;;;;;;;;;;4983474;28;20037;-78
2022/01/31 09:51:22;;;;;;;4.13;1.00;;;;;;;;;;4983446;28;20042;-78
2022/01/31 09:53:53;;;;;;;5.65;1.00;;;;;;;;;;4995478;28;20046;-78
2022/01/31 09:56:21;;;;;;;4.28;1.17;;;;;;;;;;5000822;28;20050;-78
2022/01/31 09:58:48;;;;;;;8.95;1.30;;;;;;;;;;4985194;28;20077;-79
2022/01/31 10:01:15;;;;;;;9.82;1.17;;;;;;;;;;4987148;28;20084;-79
2022/01/31 10:03:53;;;;;;;3.97;0.95;;;;;;;;;;4975922;28;20042;-79
2022/01/31 10:06:22;;;;;;;4.70;1.00;;;;;;;;;;4994753;28;20048;-79
2022/01/31 10:08:59;;;;;;;6.25;1.20;;;;;;;;;;4986644;28;20053;-79
2022/01/31 10:11:30;;;;;;;8.63;1.00;;;;;;;;;;4973447;28;20093;-79
2022/01/31 10:17:32;;;;;;;3.38;1.00;;;;;;;;;;4948744;28;20125;-80
2022/01/31 10:20:00;;;;;;;3.30;0.90;;;;;;;;;;4967415;28;20082;-79
2022/01/31 10:22:28;;;;;;;4.47;1.08;;;;;;;;;;4967836;28;20122;-78
2022/01/31 10:24:55;;;;;;;4.53;1.08;;;;;;;;;;4967499;28;20081;-79
2022/01/31 10:27:22;;;;;;;4.85;1.17;;;;;;;;;;4961892;28;20035;-79
2022/01/31 10:29:50;;;;;;;3.40;0.70;;;;;;;;;;4965292;28;20078;-79
2022/01/31 10:32:21;;;;;;;4.65;1.05;;;;;;;;;;4971239;28;20093;-79
2022/01/31 10:34:50;;;;;;;3.28;0.80;;;;;;;;;;4971131;28;20050;-79
2022/01/31 10:37:18;;;;;;;2.70;0.80;;;;;;;;;;4970677;28;20051;-80
2022/01/31 10:45:33;;;;;;;2.88;0.75;;;;;;;;;;4966726;28;20043;-79
2022/01/31 10:51:12;;;;;;;5.00;1.00;;;;;;;;;;4970793;28;20077;-80
2022/01/31 10:53:56;;;;;;;4.20;0.90;;;;;;;;;;4970160;28;20054;-79
2022/01/31 10:56:22;;;;;;;4.75;0.98;;;;;;;;;;4970516;28;20392;-79
2022/01/31 10:58:57;;;;;;;5.28;0.77;;;;;;;;;;4963068;28;20046;-80
2022/01/31 11:01:24;;;;;;;5.82;1.20;;;;;;;;;;4965801;28;20065;-80
2022/01/31 11:03:51;;;;;;;3.53;0.88;;;;;;;;;;4970120;28;20050;-80
2022/01/31 11:06:17;;;;;;;3.72;0.90;;;;;;;;;;4970238;28;20066;-79
2022/01/31 11:08:43;;;;;;;5.93;1.05;;;;;;;;;;4970809;28;20042;-79
2022/01/31 11:11:09;;;;;;;4.10;1.00;;;;;;;;;;4970533;28;20563;-79
2022/01/31 11:13:37;;;;;;;3.80;0.90;;;;;;;;;;4970322;28;20122;-79
2022/01/31 11:16:04;;;;;;;4.30;1.13;;;;;;;;;;4970113;28;20050;-80
2022/01/31 11:18:31;;;;;;;5.38;1.00;;;;;;;;;;4979003;28;20058;-80
2022/01/31 11:21:08;;;;;;;4.47;0.88;;;;;;;;;;4989966;28;20042;-80
2022/01/31 11:23:40;;;;;;;4.43;0.80;;;;;;;;;;4988994;28;20185;-80
2022/01/31 11:26:10;;;;;;;3.90;0.80;;;;;;;;;;4989703;28;20049;-79
2022/01/31 11:28:39;;;;;;;4.22;1.08;;;;;;;;;;4990419;28;20125;-80
2022/01/31 11:31:05;;;;;;;4.22;1.02;;;;;;;;;;4991204;28;20153;-80
2022/01/31 11:33:31;;;;;;;3.97;1.23;;;;;;;;;;4986584;28;20548;-80
2022/01/31 11:35:58;;;;;;;5.97;1.17;;;;;;;;;;4987264;28;20053;-79
2022/01/31 11:38:24;;;;;;;3.95;1.05;;;;;;;;;;4989323;28;20047;-80
2022/01/31 11:40:51;;;;;;;4.57;0.98;;;;;;;;;;4989372;28;20574;-79
2022/01/31 11:43:17;;;;;;;3.60;0.80;;;;;;;;;;4989105;28;20046;-80
2022/01/31 11:45:45;;;;;;;4.90;1.02;;;;;;;;;;4989299;28;20088;-80
2022/01/31 11:48:20;;;;;;;3.92;0.90;;;;;;;;;;4988962;28;20042;-79
2022/01/31 11:50:53;;;;;;;5.18;1.63;;;;;;;;;;4971792;28;20038;-80
2022/01/31 11:53:35;;;;;;;6.90;1.33;;;;;;;;;;4984733;28;20046;-77
2022/01/31 11:56:22;;;;;;;6.50;1.17;;;;;;;;;;4987506;28;20046;-72
2022/01/31 11:58:49;;;;;;;8.32;1.27;;;;;;;;;;4986418;28;20054;-80
2022/01/31 12:01:15;;;;;;;6.57;1.20;;;;;;;;;;4987384;28;20042;-80
2022/01/31 12:03:55;;;;;;;6.72;1.45;;;;;;;;;;4987355;28;20073;-79
2022/01/31 12:06:22;;;;;;;7.95;1.30;;;;;;;;;;4985453;28;20038;-79
2022/01/31 12:08:50;;;;;;;5.25;1.20;;;;;;;;;;4986921;28;20046;-78
2022/01/31 12:11:23;;;;;;;11.57;2.45;;;;;;;;;;4985599;28;20742;-79
2022/01/31 12:13:52;;;;;;;11.07;1.75;;;;;;;;;;4984271;28;20046;-79
2022/01/31 12:16:45;;;;;;;10.23;1.75;;;;;;;;;;4986570;28;20081;-79
2022/01/31 12:22:06;;;;;;;;;;;;;;;;;;4976963;28;20152;-78
2022/01/31 12:24:38;;;;;;;6.10;1.48;;;;;;;;;;5001573;28;20012;-78
2022/01/31 12:27:05;;;;;;;8.57;1.63;;;;;;;;;;4968151;28;20690;-76
2022/01/31 12:29:32;;;;;;;7.63;1.52;;;;;;;;;;4973805;28;20069;-76
2022/01/31 12:32:18;;;;;;;6.38;1.70;;;;;;;;;;4991261;28;20104;-76
2022/01/31 12:34:50;;;;;;;7.10;1.33;;;;;;;;;;4988639;28;20053;-76
2022/01/31 12:37:19;;;;;;;7.50;1.50;;;;;;;;;;4967504;28;20049;-76
2022/01/31 12:39:56;;;;;;;7.07;1.35;;;;;;;;;;4989202;28;20045;-77
2022/01/31 12:45:45;;;;;;;6.57;1.60;;;;;;;;;;4979319;28;20137;-74
2022/01/31 12:48:16;;;;;;;4.75;1.17;;;;;;;;;;4954486;28;20674;-74
2022/01/31 12:50:56;;;;;;;7.07;1.33;;;;;;;;;;4972038;28;20041;-74
2022/01/31 12:53:36;;;;;;;8.05;1.23;;;;;;;;;;4974995;28;20161;-73
2022/01/31 12:56:02;;;;;;;5.72;1.27;;;;;;;;;;4977033;28;20060;-74
2022/01/31 12:58:40;;;;;;;6.55;1.30;;;;;;;;;;4963742;28;20053;-74
2022/01/31 13:01:10;;;;;;;7.75;1.63;;;;;;;;;;4954460;28;20093;-74
2022/01/31 13:03:37;;;;;;;11.15;1.67;;;;;;;;;;4978045;28;20046;-74
2022/01/31 13:06:03;;;;;;;8.80;2.28;;;;;;;;;;4966646;28;20046;-74
2022/01/31 13:08:29;;;;;;;5.97;1.48;;;;;;;;;;5001303;28;20049;-74
2022/01/31 13:10:55;;;;;;;7.20;1.40;;;;;;;;;;5000714;28;20034;-74
2022/01/31 13:13:39;;;;;;;6.40;1.35;;;;;;;;;;5098294;27;20446;-74
2022/01/31 13:16:05;;;;;;;6.55;1.40;;;;;;;;;;5096622;28;20043;-74
2022/01/31 13:18:32;;;;;;;7.72;1.40;;;;;;;;;;5097202;28;20520;-74
2022/01/31 13:20:59;;;;;;;9.45;1.92;;;;;;;;;;5091771;28;20042;-74
2022/01/31 13:23:26;;;;;;;7.20;1.63;;;;;;;;;;5095569;28;20052;-74
2022/01/31 13:26:18;;;;;;;7.00;1.70;;;;;;;;;;5078836;28;20685;-74
2022/01/31 13:28:49;;;;;;;8.35;1.50;;;;;;;;;;5090864;28;20130;-75
2022/01/31 13:31:15;;;;;;;6.05;1.40;;;;;;;;;;5079656;28;20050;-74
2022/01/31 13:33:48;;;;;;;9.88;1.52;;;;;;;;;;5095362;28;20036;-74
2022/01/31 13:36:14;;;;;;;8.10;1.60;;;;;;;;;;5092766;28;20042;-74
2022/01/31 13:38:41;;;;;;;7.43;1.40;;;;;;;;;;5087841;28;20063;-71
2022/01/31 13:41:07;;;;;;;7.53;1.55;;;;;;;;;;5080053;28;20040;-72
2022/01/31 13:43:36;;;;;;;7.47;1.40;;;;;;;;;;5078815;28;20044;-72
2022/01/31 13:46:27;;;;;;;9.02;1.50;;;;;;;;;;5081117;28;20109;-72
2022/01/31 13:51:38;;;;;;;7.10;1.35;;;;;;;;;;5084405;28;20047;-71
2022/01/31 13:54:12;;;;;;;7.10;1.33;;;;;;;;;;5082983;28;20735;-72
2022/01/31 13:56:39;;;;;;;5.38;1.23;;;;;;;;;;5091685;28;20725;-72
2022/01/31 13:59:06;;;;;;;6.07;1.50;;;;;;;;;;5087493;28;20032;-72
2022/01/31 14:01:32;;;;;;;5.45;1.67;;;;;;;;;;5082393;28;20789;-72
2022/01/31 14:03:59;;;;;;;5.25;1.33;;;;;;;;;;5067518;28;20040;-72
2022/01/31 14:06:25;;;;;;;5.38;1.52;;;;;;;;;;5086018;28;20040;-72
2022/01/31 14:09:01;;;;;;;7.18;1.38;;;;;;;;;;5072081;28;20191;-72
2022/01/31 14:11:29;;;;;;;7.72;1.30;;;;;;;;;;5068818;28;20524;-72
2022/01/31 14:13:57;;;;;;;5.57;1.33;;;;;;;;;;5096231;28;20572;-72
2022/01/31 14:16:30;;;;;;;6.00;1.42;;;;;;;;;;5093713;28;20044;-72
2022/01/31 14:18:57;;;;;;;7.32;1.70;;;;;;;;;;5078533;28;20485;-72
2022/01/31 14:21:24;;;;;;;5.55;1.40;;;;;;;;;;5077636;28;20048;-72
2022/01/31 14:23:51;;;;;;;7.30;1.55;;;;;;;;;;5087500;28;20048;-72
2022/01/31 14:26:33;;;;;;;6.03;1.77;;;;;;;;;;5079098;28;20048;-72
2022/01/31 14:28:59;;;;;;;6.80;1.40;;;;;;;;;;5065376;28;20840;-72
2022/01/31 14:31:30;;;;;;;5.90;1.10;;;;;;;;;;5081521;28;20044;-72
2022/01/31 14:33:56;;;;;;;7.18;1.67;;;;;;;;;;5052020;28;20059;-72
2022/01/31 14:36:23;;;;;;;6.13;1.50;;;;;;;;;;5043725;28;20036;-72
2022/01/31 14:39:05;;;;;;;5.78;1.38;;;;;;;;;;5068656;28;20115;-72
2022/01/31 14:41:48;;;;;;;6.22;1.45;;;;;;;;;;5069296;28;20052;-72
2022/01/31 14:49:37;;;;;;;6.40;1.45;;;;;;;;;;5076921;28;20123;-72
2022/01/31 14:52:04;;;;;;;5.47;1.30;;;;;;;;;;5075875;28;20123;-72
2022/01/31 14:54:30;;;;;;;6.95;1.38;;;;;;;;;;5054278;28;20119;-72
2022/01/31 14:56:56;;;;;;;5.38;1.13;;;;;;;;;;5071086;28;20645;-72
2022/01/31 14:59:22;;;;;;;6.47;1.48;;;;;;;;;;5069511;28;20047;-73
2022/01/31 15:01:48;;;;;;;7.65;1.55;;;;;;;;;;5072556;28;20040;-72
2022/01/31 15:04:21;;;;;;;6.53;1.30;;;;;;;;;;5066515;28;20055;-72
2022/01/31 15:06:48;;;;;;;4.67;1.50;;;;;;;;;;5067110;28;20094;-72
2022/01/31 15:09:15;;;;;;;7.07;1.30;;;;;;;;;;5067828;28;20468;-72
2022/01/31 15:11:41;;;;;;;6.63;1.40;;;;;;;;;;5064362;28;20051;-72
2022/01/31 15:14:07;;;;;;;5.93;1.42;;;;;;;;;;5067820;28;20409;-72
2022/01/31 15:16:33;;;;;;;7.07;1.42;;;;;;;;;;5075045;28;20065;-72
2022/01/31 15:18:59;;;;;;;5.95;1.55;;;;;;;;;;5056352;28;20071;-72
2022/01/31 15:21:28;;;;;;;5.82;1.40;;;;;;;;;;5068470;28;20108;-72
2022/01/31 15:23:55;;;;;;;6.22;1.50;;;;;;;;;;5070636;28;20052;-72